createdAt,value
2024-03-02T00:02:01.739Z,99816.41
2024-03-02T00:04:28.233Z,99827.69
2024-03-02T00:06:56.374Z,99823.91
2024-03-02T00:09:23.017Z,99828.44
2024-03-02T00:11:49.950Z,99831.81
2024-03-02T00:14:16.859Z,99842.31
2024-03-02T00:16:43.770Z,99850.97
2024-03-02T00:19:10.547Z,99859.25
2024-03-02T00:21:37.225Z,99860.00
2024-03-02T00:24:20.674Z,99876.53
2024-03-02T00:26:47.428Z,99875.78
2024-03-02T00:29:18.145Z,99899.47
2024-03-02T00:31:44.720Z,99910.00
2024-03-02T00:34:14.920Z,99908.13
2024-03-02T00:36:41.463Z,99926.53
2024-03-02T00:39:09.091Z,99935.94
2024-03-02T00:41:37.063Z,99941.59
2024-03-02T00:44:09.342Z,99950.97
2024-03-02T00:46:37.826Z,99940.84
2024-03-02T00:49:06.470Z,99931.06
2024-03-02T00:51:35.762Z,99936.72
2024-03-02T00:54:07.456Z,99934.09
2024-03-02T00:56:35.972Z,99938.22
2024-03-02T00:59:02.671Z,99934.84
2024-03-02T01:01:29.306Z,99937.88
2024-03-02T01:03:56.360Z,99934.53
2024-03-02T01:06:23.846Z,99941.25
2024-03-02T01:08:53.031Z,99952.22
2024-03-02T01:11:23.392Z,99948.41
2024-03-02T01:13:50.942Z,99942.81
2024-03-02T01:16:17.728Z,99933.03
2024-03-02T01:18:44.912Z,99939.78
2024-03-02T01:21:11.560Z,99949.56
2024-03-02T01:23:38.111Z,99968.75
2024-03-02T01:26:04.759Z,99968.00
2024-03-02T01:28:31.302Z,99959.75
2024-03-02T01:30:57.935Z,99962.38
2024-03-02T01:33:24.505Z,99951.88
2024-03-02T01:35:51.121Z,99957.13
2024-03-02T01:38:17.613Z,99949.22
2024-03-02T01:40:45.756Z,99960.88
2024-03-02T01:43:12.581Z,99966.50
2024-03-02T01:45:39.442Z,99967.66
2024-03-02T01:48:08.043Z,99967.66
2024-03-02T01:50:35.823Z,99969.88
2024-03-02T01:53:04.249Z,99961.66
2024-03-02T01:55:31.862Z,99971.41
2024-03-02T01:57:59.404Z,99969.53
2024-03-02T02:00:27.241Z,99966.91
2024-03-02T02:02:54.825Z,99961.66
2024-03-02T02:05:21.398Z,99964.28
2024-03-02T02:07:48.010Z,99978.56
2024-03-02T02:10:14.617Z,99985.34
2024-03-02T02:12:41.327Z,99972.19
2024-03-02T02:15:28.203Z,99963.94
2024-03-02T02:17:58.767Z,99968.44
2024-03-02T02:20:26.123Z,99976.34
2024-03-02T02:23:03.767Z,99965.81
2024-03-02T02:25:31.128Z,99961.69
2024-03-02T02:27:58.691Z,99963.59
2024-03-02T02:30:27.929Z,99967.72
2024-03-02T02:32:54.636Z,99965.06
2024-03-02T02:35:21.248Z,99966.97
2024-03-02T02:37:49.794Z,99977.50
2024-03-02T02:40:17.227Z,99980.53
2024-03-02T02:42:44.142Z,99976.00
2024-03-02T02:45:12.044Z,99977.16
2024-03-02T02:47:39.085Z,99973.38
2024-03-02T02:50:08.178Z,99958.72
2024-03-02T02:52:40.789Z,99977.16
2024-03-02T02:55:12.231Z,99965.88
2024-03-02T02:57:41.234Z,99978.28
2024-03-02T03:00:15.458Z,99977.56
2024-03-02T03:02:43.607Z,99965.13
2024-03-02T03:05:11.958Z,99962.94
2024-03-02T03:07:39.120Z,99971.56
2024-03-02T03:10:07.663Z,99967.78
2024-03-02T03:12:34.963Z,99961.03
2024-03-02T03:15:01.946Z,99959.88
2024-03-02T03:17:28.720Z,99978.28
2024-03-02T03:19:56.031Z,99971.56
2024-03-02T03:22:22.683Z,99968.94
2024-03-02T03:24:49.236Z,99974.19
2024-03-02T03:27:15.910Z,99985.88
2024-03-02T03:29:42.489Z,99991.88
2024-03-02T03:32:09.090Z,99980.59
2024-03-02T03:34:35.824Z,99987.75
2024-03-02T03:37:03.086Z,99990.38
2024-03-02T03:39:29.853Z,99995.66
2024-03-02T03:41:56.447Z,99993.75
2024-03-02T03:44:22.984Z,99990.78
2024-03-02T03:46:49.552Z,99992.28
2024-03-02T03:49:16.189Z,99994.16
2024-03-02T03:51:42.718Z,99998.69
2024-03-02T03:54:09.456Z,99985.53
2024-03-02T03:56:35.963Z,99978.38
2024-03-02T03:59:02.806Z,99993.41
2024-03-02T04:01:29.613Z,99990.03
2024-03-02T04:03:56.317Z,99988.16
2024-03-02T04:06:22.929Z,99987.41
2024-03-02T04:08:49.466Z,100000.56
2024-03-02T04:11:16.148Z,99999.81
2024-03-02T04:13:42.691Z,100006.56
2024-03-02T04:16:09.203Z,100002.44
2024-03-02T04:18:36.231Z,100001.72
2024-03-02T04:21:02.878Z,100008.47
2024-03-02T04:23:29.458Z,100000.97
2024-03-02T04:25:55.957Z,99999.06
2024-03-02T04:28:22.465Z,100006.22
2024-03-02T04:30:49.371Z,100011.50
2024-03-02T04:33:16.128Z,100006.22
2024-03-02T04:35:43.059Z,100006.22
2024-03-02T04:38:09.547Z,100011.50
2024-03-02T04:40:36.083Z,100011.50
2024-03-02T04:43:02.709Z,100019.00
2024-03-02T04:45:29.286Z,100018.25
2024-03-02T04:47:55.828Z,100017.50
2024-03-02T04:50:22.321Z,100024.25
2024-03-02T04:52:48.804Z,100024.25
2024-03-02T04:55:18.116Z,100031.41
2024-03-02T04:57:44.728Z,100034.78
2024-03-02T05:00:11.793Z,100037.41
2024-03-02T05:02:38.319Z,100036.66
2024-03-02T05:05:05.244Z,100031.41
2024-03-02T05:07:31.744Z,100037.41
2024-03-02T05:09:58.264Z,100041.94
2024-03-02T05:12:50.439Z,100040.44
2024-03-02T05:15:17.073Z,100045.69
2024-03-02T05:17:44.441Z,100043.06
2024-03-02T05:20:11.670Z,100047.59
2024-03-02T05:22:39.267Z,100044.94
2024-03-02T05:25:06.669Z,100043.06
2024-03-02T05:27:34.313Z,100047.59
2024-03-02T05:30:01.342Z,100060.34
2024-03-02T05:32:28.021Z,100050.97
2024-03-02T05:34:54.532Z,100043.06
2024-03-02T05:37:21.177Z,100042.31
2024-03-02T05:39:47.724Z,100048.34
2024-03-02T05:42:15.421Z,100048.34
2024-03-02T05:44:41.910Z,100050.97
2024-03-02T05:47:10.011Z,100045.69
2024-03-02T05:49:37.010Z,100050.22
2024-03-02T05:52:04.482Z,100056.22
2024-03-02T05:54:31.225Z,100058.84
2024-03-02T05:56:57.789Z,100060.34
2024-03-02T05:59:24.288Z,100070.13
2024-03-02T06:01:52.876Z,100066.75
2024-03-02T06:04:19.628Z,100064.13
2024-03-02T06:06:46.236Z,100062.22
2024-03-02T06:09:15.378Z,100074.25
2024-03-02T06:11:42.038Z,100074.25
2024-03-02T06:14:09.706Z,100075.72
2024-03-02T06:16:36.421Z,100085.88
2024-03-02T06:19:03.329Z,100091.13
2024-03-02T06:21:30.112Z,100087.34
2024-03-02T06:23:58.046Z,100084.28
2024-03-02T06:26:26.127Z,100088.09
2024-03-02T06:28:53.262Z,100103.47
2024-03-02T06:31:20.151Z,100103.81
2024-03-02T06:33:46.840Z,100099.69
2024-03-02T06:36:13.649Z,100101.97
2024-03-02T06:38:43.618Z,100104.59
2024-03-02T06:41:10.478Z,100104.22
2024-03-02T06:43:37.023Z,100103.06
2024-03-02T06:46:03.799Z,100112.84
2024-03-02T06:48:31.500Z,100109.81
2024-03-02T06:50:59.463Z,100107.59
2024-03-02T06:53:26.514Z,100110.13
2024-03-02T06:55:53.090Z,100104.88
2024-03-02T06:58:19.632Z,100100.72
2024-03-02T07:00:46.391Z,100111.25
2024-03-02T07:03:13.727Z,100106.75
2024-03-02T07:05:40.631Z,100096.22
2024-03-02T07:08:07.423Z,100102.16
2024-03-02T07:10:33.983Z,100101.00
2024-03-02T07:13:00.815Z,100105.44
2024-03-02T07:15:45.861Z,100099.81
2024-03-02T07:18:12.398Z,100103.50
2024-03-02T07:20:40.178Z,100106.88
2024-03-02T07:23:07.179Z,100112.16
2024-03-02T07:28:04.106Z,100112.56
2024-03-02T07:30:32.672Z,100117.75
2024-03-02T07:33:01.011Z,100116.19
2024-03-02T07:35:32.843Z,100124.09
2024-03-02T07:37:59.460Z,100134.97
2024-03-02T07:40:26.202Z,100137.59
2024-03-02T07:42:52.845Z,100134.22
2024-03-02T07:45:19.551Z,100130.19
2024-03-02T07:47:47.406Z,100131.31
2024-03-02T07:50:14.261Z,100144.75
2024-03-02T07:52:40.773Z,100141.31
2024-03-02T07:55:07.934Z,100133.69
2024-03-02T07:57:34.653Z,100133.59
2024-03-02T08:00:01.313Z,100130.41
2024-03-02T08:02:27.930Z,100130.06
2024-03-02T08:04:54.573Z,100137.97
2024-03-02T08:07:21.112Z,100142.75
2024-03-02T08:09:47.710Z,100145.78
2024-03-02T08:12:14.256Z,100160.66
2024-03-02T08:14:41.441Z,100161.13
2024-03-02T08:17:10.696Z,100150.69
2024-03-02T08:19:38.063Z,100150.94
2024-03-02T08:22:05.053Z,100160.53
2024-03-02T08:24:31.758Z,100154.88
2024-03-02T08:27:00.192Z,100150.94
2024-03-02T08:29:26.733Z,100145.16
2024-03-02T08:31:54.532Z,100145.16
2024-03-02T08:34:21.274Z,100153.09
2024-03-02T08:36:48.012Z,100150.78
2024-03-02T08:39:16.529Z,100148.56
2024-03-02T08:41:45.495Z,100160.25
2024-03-02T08:44:12.752Z,100150.44
2024-03-02T08:46:40.556Z,100159.50
2024-03-02T08:49:07.656Z,100151.59
2024-03-02T08:51:34.555Z,100150.09
2024-03-02T08:54:01.072Z,100148.28
2024-03-02T08:56:27.662Z,100156.19
2024-03-02T08:58:54.379Z,100150.94
2024-03-02T09:01:21.206Z,100160.72
2024-03-02T09:03:47.884Z,100159.19
2024-03-02T09:06:15.288Z,100160.03
2024-03-02T09:08:42.125Z,100159.28
2024-03-02T09:11:08.741Z,100162.31
2024-03-02T09:13:35.810Z,100161.91
2024-03-02T09:16:02.461Z,100153.66
2024-03-02T09:18:29.016Z,100153.75
2024-03-02T09:20:55.531Z,100162.47
2024-03-02T09:23:22.502Z,100151.94
2024-03-02T09:25:49.076Z,100150.00
2024-03-02T09:28:18.730Z,100159.16
2024-03-02T09:30:45.368Z,100158.03
2024-03-02T09:35:41.271Z,100163.72
2024-03-02T09:38:08.087Z,100157.28
2024-03-02T09:40:34.758Z,100161.91
2024-03-02T09:43:01.611Z,100162.66
2024-03-02T09:45:28.520Z,100167.59
2024-03-02T09:47:56.156Z,100166.91
2024-03-02T09:50:22.822Z,100164.69
2024-03-02T09:52:50.758Z,100175.66
2024-03-02T09:55:19.112Z,100166.59
2024-03-02T09:57:46.904Z,100172.72
2024-03-02T10:00:16.116Z,100172.63
2024-03-02T10:02:43.570Z,100181.28
2024-03-02T10:05:10.574Z,100177.16
2024-03-02T10:07:37.159Z,100168.88
2024-03-02T10:10:16.953Z,100175.38
2024-03-02T10:12:43.655Z,100176.56
2024-03-02T10:15:11.052Z,100169.88
2024-03-02T10:17:38.034Z,100177.38
2024-03-02T10:20:24.488Z,100167.44
2024-03-02T10:22:51.235Z,100167.25
2024-03-02T10:28:07.078Z,100160.25
2024-03-02T10:30:37.198Z,100167.25
2024-03-02T10:33:04.690Z,100170.47
2024-03-02T10:35:37.552Z,100168.19
2024-03-02T10:38:06.604Z,100159.84
2024-03-02T10:40:33.716Z,100152.00
2024-03-02T10:43:03.077Z,100150.94
2024-03-02T10:45:30.678Z,100126.94
2024-03-02T10:47:57.898Z,100132.09
2024-03-02T10:50:25.819Z,100122.69
2024-03-02T10:52:52.518Z,100128.09
2024-03-02T10:55:19.722Z,100125.53
2024-03-02T10:57:58.378Z,100119.25
2024-03-02T11:00:35.097Z,100129.16
2024-03-02T11:03:11.744Z,100131.13
2024-03-02T11:05:41.167Z,100125.63
2024-03-02T11:08:09.356Z,100127.19
2024-03-02T11:10:38.665Z,100128.75
2024-03-02T11:13:09.611Z,100143.50
2024-03-02T11:15:38.026Z,100133.06
2024-03-02T11:18:09.790Z,100135.03
2024-03-02T11:20:39.765Z,100124.22
2024-03-02T11:23:08.051Z,100130.31
2024-03-02T11:25:35.225Z,100139.03
2024-03-02T11:28:07.107Z,100131.53
2024-03-02T11:30:34.213Z,100125.84
2024-03-02T11:33:02.110Z,100121.41
2024-03-02T11:35:29.735Z,100109.13
2024-03-02T11:37:56.607Z,100115.13
2024-03-02T11:40:23.397Z,100116.03
2024-03-02T11:42:50.054Z,100104.75
2024-03-02T11:45:24.181Z,100113.81
2024-03-02T11:47:58.903Z,100113.88
2024-03-02T11:50:35.493Z,100115.78
2024-03-02T11:53:02.433Z,100117.69
2024-03-02T11:55:31.324Z,100113.16
2024-03-02T11:57:59.347Z,100112.13
2024-03-02T12:00:26.001Z,100120.03
2024-03-02T12:03:22.764Z,100108.44
2024-03-02T12:05:53.733Z,100108.44
2024-03-02T12:08:20.573Z,100106.53
2024-03-02T12:11:01.922Z,100101.28
2024-03-02T12:13:29.114Z,100094.50
2024-03-02T12:15:58.364Z,100081.34
2024-03-02T12:18:26.386Z,100080.59
2024-03-02T12:20:54.029Z,100081.34
2024-03-02T12:23:21.046Z,100071.94
2024-03-02T12:25:47.919Z,100071.94
2024-03-02T12:28:14.480Z,100077.22
2024-03-02T12:30:41.271Z,100086.66
2024-03-02T12:33:07.927Z,100060.72
2024-03-02T12:35:34.464Z,100066.72
2024-03-02T12:38:00.970Z,100068.22
2024-03-02T12:40:28.520Z,100062.19
2024-03-02T12:42:55.232Z,100063.34
2024-03-02T12:45:25.835Z,100057.78
2024-03-02T12:47:53.269Z,100053.97
2024-03-02T12:50:20.502Z,100041.22
2024-03-02T12:52:54.368Z,100040.47
2024-03-02T12:55:22.745Z,100033.72
2024-03-02T12:57:51.670Z,100033.38
2024-03-02T13:00:20.160Z,100044.66
2024-03-02T13:02:47.385Z,100036.44
2024-03-02T13:05:14.758Z,100035.69
2024-03-02T13:07:42.044Z,100038.69
2024-03-02T13:10:10.116Z,100028.53
2024-03-02T13:12:38.037Z,100038.69
2024-03-02T13:15:06.346Z,100038.69
2024-03-02T13:17:37.986Z,100040.59
2024-03-02T13:20:09.449Z,100044.38
2024-03-02T13:22:36.308Z,100037.66
2024-03-02T13:25:07.425Z,100028.25
2024-03-02T13:27:34.774Z,100026.78
2024-03-02T13:30:03.771Z,100026.78
2024-03-02T13:32:30.316Z,100027.50
2024-03-02T13:34:56.866Z,100033.84
2024-03-02T13:37:23.632Z,100025.94
2024-03-02T13:39:50.582Z,100023.31
2024-03-02T13:42:17.978Z,100026.69
2024-03-02T13:44:48.417Z,100024.03
2024-03-02T13:47:15.276Z,100023.72
2024-03-02T13:49:45.040Z,100015.81
2024-03-02T13:52:12.279Z,100023.72
2024-03-02T13:54:40.483Z,100020.75
2024-03-02T13:57:08.424Z,100014.75
2024-03-02T13:59:38.721Z,100008.41
2024-03-02T14:02:09.827Z,99993.75
2024-03-02T14:04:37.339Z,100001.66
2024-03-02T14:07:04.833Z,99996.41
2024-03-02T14:09:31.759Z,100002.03
2024-03-02T14:11:58.512Z,99996.06
2024-03-02T14:14:25.509Z,99994.13
2024-03-02T14:16:52.463Z,99983.59
2024-03-02T14:19:19.473Z,99970.44
2024-03-02T14:21:46.469Z,99968.22
2024-03-02T14:24:13.013Z,99959.88
2024-03-02T14:26:39.869Z,99959.50
2024-03-02T14:29:06.464Z,99949.31
2024-03-02T14:31:33.081Z,99951.50
2024-03-02T14:34:00.713Z,99945.09
2024-03-02T14:36:29.197Z,99955.22
2024-03-02T14:38:56.430Z,99956.72
2024-03-02T14:41:25.105Z,99953.34
2024-03-02T14:43:51.986Z,99960.06
2024-03-02T14:46:19.225Z,99958.25
2024-03-02T14:48:47.367Z,99955.22
2024-03-02T14:51:14.704Z,99954.88
2024-03-02T14:53:41.399Z,99954.56
2024-03-02T14:56:08.229Z,99958.38
2024-03-02T14:58:36.509Z,99953.09
2024-03-02T15:01:03.235Z,99945.25
2024-03-02T15:03:30.006Z,99948.22
2024-03-02T15:05:57.961Z,99949.34
2024-03-02T15:08:24.534Z,99954.63
2024-03-02T15:10:51.191Z,99950.53
2024-03-02T15:13:17.780Z,99945.25
2024-03-02T15:15:44.429Z,99947.06
2024-03-02T15:18:11.051Z,99937.94
2024-03-02T15:20:37.637Z,99937.09
2024-03-02T15:23:04.421Z,99941.06
2024-03-02T15:25:30.950Z,99943.47
2024-03-02T15:27:57.538Z,99941.47
2024-03-02T15:30:24.172Z,99943.38
2024-03-02T15:32:50.882Z,99945.25
2024-03-02T15:35:17.369Z,99943.09
2024-03-02T15:37:44.041Z,99949.47
2024-03-02T15:40:11.011Z,99942.06
2024-03-02T15:42:37.872Z,99945.50
2024-03-02T15:45:05.715Z,99944.78
2024-03-02T15:47:32.404Z,99944.03
2024-03-02T15:49:58.905Z,99944.78
2024-03-02T15:52:25.425Z,99948.56
2024-03-02T15:54:51.979Z,99934.66
2024-03-02T15:57:18.811Z,99933.91
2024-03-02T15:59:45.552Z,99931.59
2024-03-02T16:02:12.387Z,99924.84
2024-03-02T16:04:39.189Z,99922.88
2024-03-02T16:07:05.934Z,99913.81
2024-03-02T16:09:32.654Z,99911.00
2024-03-02T16:11:59.258Z,99917.91
2024-03-02T16:14:26.007Z,99908.09
2024-03-02T16:16:52.579Z,99908.06
2024-03-02T16:19:29.047Z,99903.44
2024-03-02T16:21:59.365Z,99908.94
2024-03-02T16:24:26.012Z,99911.00
2024-03-02T16:26:52.636Z,99915.63
2024-03-02T16:29:19.217Z,99922.47
2024-03-02T16:31:45.740Z,99910.44
2024-03-02T16:34:13.018Z,99912.31
2024-03-02T16:36:41.450Z,99910.88
2024-03-02T16:39:10.135Z,99908.22
2024-03-02T16:41:37.022Z,99901.84
2024-03-02T16:44:07.095Z,99899.22
2024-03-02T16:46:34.293Z,99903.75
2024-03-02T16:49:00.990Z,99899.63
2024-03-02T16:51:27.626Z,99901.53
2024-03-02T16:53:54.140Z,99896.28
2024-03-02T16:56:20.668Z,99899.31
2024-03-02T16:58:47.204Z,99898.56
2024-03-02T17:01:13.767Z,99899.72
2024-03-02T17:03:40.367Z,99895.59
2024-03-02T17:06:06.946Z,99901.22
2024-03-02T17:08:33.494Z,99906.13
2024-03-02T17:11:00.049Z,99900.16
2024-03-02T17:13:26.546Z,99907.31
2024-03-02T17:15:53.045Z,99904.31
2024-03-02T17:18:19.577Z,99905.81
2024-03-02T17:20:46.106Z,99908.09
2024-03-02T17:23:12.636Z,99903.25
2024-03-02T17:25:39.189Z,99911.88
2024-03-02T17:28:22.304Z,99920.22
2024-03-02T17:30:48.923Z,99926.22
2024-03-02T17:33:15.458Z,99922.09
2024-03-02T17:35:42.417Z,99927.75
2024-03-02T17:38:08.936Z,99932.72
2024-03-02T17:40:35.493Z,99925.97
2024-03-02T17:43:02.101Z,99933.88
2024-03-02T17:45:28.667Z,99931.22
2024-03-02T17:47:55.196Z,99941.03
2024-03-02T17:50:21.803Z,99939.13
2024-03-02T17:52:48.904Z,99942.91
2024-03-02T17:55:15.560Z,99942.16
2024-03-02T17:57:42.189Z,99950.44
2024-03-02T18:00:15.157Z,99950.44
2024-03-02T18:02:42.230Z,99953.06
2024-03-02T18:05:09.973Z,99957.63
2024-03-02T18:07:37.579Z,99950.88
2024-03-02T18:10:05.473Z,99944.88
2024-03-02T18:12:32.653Z,99946.75
2024-03-02T18:14:59.447Z,99942.97
2024-03-02T18:17:26.309Z,99950.13
2024-03-02T18:19:53.663Z,99948.66
2024-03-02T18:22:20.872Z,99950.88
2024-03-02T18:24:47.791Z,99949.38
2024-03-02T18:27:14.383Z,99952.03
2024-03-02T18:29:40.960Z,99947.91
2024-03-02T18:32:07.800Z,99951.28
2024-03-02T18:34:37.093Z,99953.91
2024-03-02T18:37:05.718Z,99950.53
2024-03-02T18:39:32.640Z,99954.31
2024-03-02T18:41:59.295Z,99953.16
2024-03-02T18:44:26.034Z,99954.31
2024-03-02T18:46:52.730Z,99953.59
2024-03-02T18:49:19.359Z,99954.00
2024-03-02T18:51:46.014Z,99955.88
2024-03-02T18:54:17.337Z,99948.00
2024-03-02T18:56:43.940Z,99950.63
2024-03-02T18:59:10.498Z,99954.41
2024-03-02T19:01:37.144Z,99958.91
2024-03-02T19:04:03.980Z,99952.19
2024-03-02T19:06:30.571Z,99955.94
2024-03-02T19:08:58.944Z,99943.53
2024-03-02T19:11:26.463Z,99949.19
2024-03-02T19:13:53.507Z,99937.94
2024-03-02T19:16:20.032Z,99936.44
2024-03-02T19:18:46.630Z,99940.22
2024-03-02T19:21:13.131Z,99931.91
2024-03-02T19:23:44.117Z,99931.50
2024-03-02T19:26:19.087Z,99936.03
2024-03-02T19:28:46.335Z,99929.28
2024-03-02T19:31:16.159Z,99929.28
2024-03-02T19:33:43.098Z,99924.41
2024-03-02T19:36:09.692Z,99925.59
2024-03-02T19:38:36.421Z,99926.00
2024-03-02T19:41:03.246Z,99923.38
2024-03-02T19:43:29.742Z,99926.75
2024-03-02T19:45:56.318Z,99927.88
2024-03-02T19:48:23.686Z,99923.38
2024-03-02T19:50:51.389Z,99920.00
2024-03-02T19:53:18.057Z,99915.47
2024-03-02T19:55:45.582Z,99913.97
2024-03-02T19:58:12.377Z,99906.50
2024-03-02T20:00:39.650Z,99909.16
2024-03-02T20:03:06.423Z,99901.56
2024-03-02T20:05:32.976Z,99910.59
2024-03-02T20:07:59.548Z,99899.34
2024-03-02T20:10:26.093Z,99901.25
2024-03-02T20:12:52.747Z,99894.06
2024-03-02T20:15:20.925Z,99898.63
2024-03-02T20:17:47.802Z,99892.91
2024-03-02T20:20:15.465Z,99893.34
2024-03-02T20:22:41.992Z,99896.38
2024-03-02T20:25:11.007Z,99892.63
2024-03-02T20:27:37.744Z,99900.88
2024-03-02T20:30:07.539Z,99899.41
2024-03-02T20:32:34.195Z,99896.03
2024-03-02T20:35:01.334Z,99901.97
2024-03-02T20:37:29.039Z,99894.41
2024-03-02T20:39:59.660Z,99901.47
2024-03-02T20:42:29.758Z,99907.66
2024-03-02T20:44:56.302Z,99906.22
2024-03-02T20:47:23.981Z,99907.66
2024-03-02T20:49:52.283Z,99897.13
2024-03-02T20:52:20.956Z,99906.22
2024-03-02T20:54:47.834Z,99901.34
2024-03-02T20:57:14.439Z,99903.97
2024-03-02T20:59:41.201Z,99907.75
2024-03-02T21:02:07.791Z,99909.25
2024-03-02T21:04:34.580Z,99910.72
2024-03-02T21:07:01.250Z,99917.44
2024-03-02T21:09:27.780Z,99915.56
2024-03-02T21:11:54.383Z,99918.53
2024-03-02T21:14:20.884Z,99925.28
2024-03-02T21:16:49.641Z,99918.84
2024-03-02T21:19:16.277Z,99925.22
2024-03-02T21:21:43.087Z,99925.97
2024-03-02T21:24:10.794Z,99928.59
2024-03-02T21:26:42.185Z,99922.59
2024-03-02T21:29:09.666Z,99928.19
2024-03-02T21:31:36.202Z,99928.19
2024-03-02T21:34:02.982Z,99934.19
2024-03-02T21:36:29.559Z,99934.59
2024-03-02T21:38:56.061Z,99939.88
2024-03-02T21:41:23.616Z,99940.63
2024-03-02T21:43:50.099Z,99939.88
2024-03-02T21:46:17.378Z,99939.13
2024-03-02T21:48:44.336Z,99939.13
2024-03-02T21:51:17.155Z,99938.38
2024-03-02T21:53:44.490Z,99939.13
2024-03-02T21:56:13.057Z,99938.38
2024-03-02T21:58:40.412Z,99938.72
2024-03-02T22:01:07.128Z,99936.09
2024-03-02T22:03:33.875Z,99938.00
2024-03-02T22:06:00.514Z,99944.00
2024-03-02T22:08:28.481Z,99941.03
2024-03-02T22:10:58.085Z,99941.03
2024-03-02T22:13:24.720Z,99943.66
2024-03-02T22:15:51.325Z,99939.88
2024-03-02T22:18:17.963Z,99939.13
2024-03-02T22:20:44.482Z,99939.13
2024-03-02T22:23:11.164Z,99944.41
2024-03-02T22:25:38.155Z,99934.66
2024-03-02T22:28:05.020Z,99937.72
2024-03-02T22:30:31.618Z,99935.06
2024-03-02T22:32:58.483Z,99930.97
2024-03-02T22:35:25.894Z,99926.09
2024-03-02T22:37:52.383Z,99926.09
2024-03-02T22:40:19.147Z,99930.63
2024-03-02T22:42:45.803Z,99930.31
2024-03-02T22:45:12.346Z,99925.03
2024-03-02T22:47:39.145Z,99924.28
2024-03-02T22:50:08.882Z,99925.44
2024-03-02T22:52:36.835Z,99925.03
2024-03-02T22:55:03.961Z,99923.16
2024-03-02T22:57:30.543Z,99924.28
2024-03-02T22:59:57.055Z,99920.50
2024-03-02T23:02:25.001Z,99925.03
2024-03-02T23:04:51.684Z,99913.75
2024-03-02T23:07:22.612Z,99922.81
2024-03-02T23:09:49.903Z,99915.66
2024-03-02T23:12:16.701Z,99917.53
2024-03-02T23:14:43.283Z,99908.16
2024-03-02T23:17:09.948Z,99913.44
2024-03-02T23:19:36.590Z,99913.44
2024-03-02T23:22:03.374Z,99917.19
2024-03-02T23:24:30.010Z,99919.84
2024-03-02T23:26:56.523Z,99919.09
2024-03-02T23:29:23.026Z,99919.09
2024-03-02T23:31:49.512Z,99919.09
2024-03-02T23:34:16.099Z,99918.34
2024-03-02T23:36:42.617Z,99922.88
2024-03-02T23:39:11.288Z,99922.53
2024-03-02T23:41:38.032Z,99912.00
2024-03-02T23:44:08.552Z,99915.38
2024-03-02T23:46:36.013Z,99918.00
2024-03-02T23:49:02.633Z,99916.53
2024-03-02T23:51:29.282Z,99920.63
2024-03-02T23:53:56.507Z,99918.00
2024-03-02T23:56:23.034Z,99917.25
2024-03-02T23:58:50.171Z,99914.63
